createdAt,value
2018-08-31T00:00:47.672Z,93.70
2018-08-31T00:05:56.915Z,92.21
2018-08-31T00:11:23.984Z,93.66
2018-08-31T00:16:21.736Z,93.49
2018-08-31T00:21:19.124Z,93.96
2018-08-31T00:26:27.847Z,94.79
2018-08-31T00:33:44.139Z,94.63
2018-08-31T00:38:56.443Z,94.88
2018-08-31T00:45:03.875Z,94.97
2018-08-31T00:50:04.681Z,93.25
2018-08-31T00:55:02.126Z,94.11
2018-08-31T00:59:59.534Z,94.62
2018-08-31T01:04:56.919Z,95.20
2018-08-31T01:09:54.962Z,95.50
2018-08-31T01:14:52.995Z,95.03
2018-08-31T01:19:53.267Z,95.16
2018-08-31T01:24:50.807Z,95.57
2018-08-31T01:29:48.183Z,93.84
2018-08-31T01:34:45.562Z,92.68
2018-08-31T01:39:42.978Z,93.74
2018-08-31T01:44:40.643Z,93.78
2018-08-31T01:49:41.929Z,94.31
2018-08-31T01:54:39.346Z,94.99
2018-08-31T01:59:36.735Z,93.79
2018-08-31T02:04:34.922Z,94.63
2018-08-31T02:09:32.300Z,94.95
2018-08-31T02:14:29.671Z,94.52
2018-08-31T02:19:31.777Z,94.42
2018-08-31T02:24:29.414Z,94.88
2018-08-31T02:29:26.824Z,94.54
2018-08-31T02:34:25.103Z,94.74
2018-08-31T02:39:22.552Z,94.43
2018-08-31T02:44:19.887Z,94.58
2018-08-31T02:49:26.245Z,95.15
2018-08-31T02:54:23.763Z,94.76
2018-08-31T02:59:21.131Z,93.97
2018-08-31T03:04:18.827Z,94.41
2018-08-31T03:09:16.195Z,94.31
2018-08-31T03:14:13.587Z,94.27
2018-08-31T03:19:12.547Z,93.62
2018-08-31T03:24:10.022Z,93.19
2018-08-31T03:29:07.767Z,94.25
2018-08-31T03:34:05.778Z,93.44
2018-08-31T03:39:04.155Z,94.43
2018-08-31T03:44:01.530Z,94.36
2018-08-31T03:48:59.011Z,94.26
2018-08-31T03:53:56.495Z,94.01
2018-08-31T03:58:53.894Z,93.52
2018-08-31T04:03:52.279Z,93.23
2018-08-31T04:08:49.687Z,93.67
2018-08-31T04:13:47.071Z,93.66
2018-08-31T04:18:44.527Z,93.75
2018-08-31T04:23:41.963Z,93.61
2018-08-31T04:28:39.362Z,93.21
2018-08-31T04:33:36.778Z,93.27
2018-08-31T04:38:34.174Z,93.25
2018-08-31T04:43:31.572Z,93.56
2018-08-31T04:48:29.947Z,93.41
2018-08-31T04:53:27.382Z,93.90
2018-08-31T04:58:24.790Z,93.63
2018-08-31T05:03:22.786Z,93.86
2018-08-31T05:08:21.036Z,93.55
2018-08-31T05:13:19.538Z,92.86
2018-08-31T05:18:17.675Z,91.07
2018-08-31T05:23:20.031Z,90.90
2018-08-31T05:28:17.611Z,89.62
2018-08-31T05:33:15.031Z,88.95
2018-08-31T05:38:12.459Z,88.41
2018-08-31T05:43:09.837Z,87.06
2018-08-31T05:48:07.233Z,86.87
2018-08-31T05:53:04.650Z,88.03
2018-08-31T05:58:02.045Z,88.32
2018-08-31T06:02:59.455Z,88.06
2018-08-31T06:07:56.901Z,86.81
2018-08-31T06:12:55.071Z,86.76
2018-08-31T06:17:53.106Z,87.08
2018-08-31T06:22:50.540Z,86.41
2018-08-31T06:27:47.963Z,86.87
2018-08-31T06:32:45.988Z,86.91
2018-08-31T06:37:43.911Z,87.31
2018-08-31T06:42:41.317Z,88.69
2018-08-31T06:47:38.819Z,86.50
2018-08-31T06:52:36.274Z,87.29
2018-08-31T06:57:33.700Z,87.72
2018-08-31T07:02:31.107Z,86.85
2018-08-31T07:07:29.168Z,86.44
2018-08-31T07:12:26.856Z,86.48
2018-08-31T07:17:25.146Z,87.25
2018-08-31T07:22:22.547Z,86.13
2018-08-31T07:27:20.278Z,86.62
2018-08-31T07:32:17.830Z,86.57
2018-08-31T07:37:15.469Z,87.28
2018-08-31T07:42:12.894Z,87.47
2018-08-31T07:47:10.571Z,85.74
2018-08-31T07:52:07.978Z,86.82
2018-08-31T07:57:05.891Z,86.97
2018-08-31T08:02:03.380Z,86.07
2018-08-31T08:07:00.843Z,84.32
2018-08-31T08:11:58.459Z,82.61
2018-08-31T08:16:55.860Z,83.79
2018-08-31T08:21:53.324Z,82.34
2018-08-31T08:26:50.799Z,82.30
2018-08-31T08:31:48.200Z,84.71
2018-08-31T08:36:45.847Z,84.49
2018-08-31T08:41:46.193Z,83.28
2018-08-31T08:46:47.338Z,82.35
2018-08-31T08:51:52.951Z,81.21
2018-08-31T08:56:54.008Z,82.24
2018-08-31T09:01:51.519Z,81.41
2018-08-31T09:06:51.158Z,81.52
2018-08-31T09:11:50.735Z,83.64
2018-08-31T09:16:48.313Z,81.87
2018-08-31T09:21:47.163Z,76.63
2018-08-31T09:26:44.922Z,75.82
2018-08-31T09:31:44.919Z,78.43
2018-08-31T09:36:45.103Z,76.86
2018-08-31T09:41:42.487Z,79.21
2018-08-31T09:46:39.896Z,79.68
2018-08-31T09:51:37.575Z,77.49
2018-08-31T09:56:35.995Z,79.22
2018-08-31T10:01:34.678Z,77.81
2018-08-31T10:06:33.129Z,77.37
2018-08-31T10:11:30.544Z,77.86
2018-08-31T10:16:27.947Z,77.39
2018-08-31T10:21:25.463Z,77.10
2018-08-31T10:26:23.869Z,76.05
2018-08-31T10:31:21.355Z,71.33
2018-08-31T10:36:18.877Z,74.85
2018-08-31T10:41:16.278Z,72.23
2018-08-31T10:46:13.689Z,67.93
2018-08-31T10:51:11.132Z,68.61
2018-08-31T10:56:11.547Z,68.95
2018-08-31T11:01:14.597Z,69.79
2018-08-31T11:06:17.506Z,65.01
2018-08-31T11:11:17.784Z,65.60
2018-08-31T11:16:16.183Z,65.65
2018-08-31T11:21:13.639Z,64.04
2018-08-31T11:26:11.051Z,61.01
2018-08-31T11:31:08.459Z,58.31
2018-08-31T11:36:05.906Z,58.38
2018-08-31T11:41:03.321Z,59.79
2018-08-31T11:46:00.738Z,56.18
2018-08-31T11:50:59.188Z,52.96
2018-08-31T11:55:57.467Z,56.20
2018-08-31T12:00:54.982Z,54.77
2018-08-31T12:05:52.467Z,58.85
2018-08-31T12:10:50.374Z,58.07
2018-08-31T12:15:47.871Z,59.81
2018-08-31T12:20:47.299Z,55.86
2018-08-31T12:25:45.063Z,61.00
2018-08-31T12:30:42.524Z,60.74
2018-08-31T12:35:40.719Z,55.85
2018-08-31T12:40:39.246Z,55.52
2018-08-31T12:45:37.388Z,58.09
2018-08-31T12:50:35.443Z,59.55
2018-08-31T12:55:33.826Z,55.01
2018-08-31T13:00:32.587Z,57.73
2018-08-31T13:05:30.293Z,58.63
2018-08-31T13:10:27.728Z,60.04
2018-08-31T13:15:25.190Z,57.75
2018-08-31T13:20:23.619Z,54.95
2018-08-31T13:25:21.050Z,54.94
2018-08-31T13:30:18.545Z,52.96
2018-08-31T13:35:15.960Z,52.46
2018-08-31T13:40:13.363Z,51.96
2018-08-31T13:45:10.782Z,51.16
2018-08-31T13:50:09.048Z,52.12
2018-08-31T13:55:06.636Z,48.45
2018-08-31T14:00:04.481Z,47.86
2018-08-31T14:05:01.963Z,48.56
2018-08-31T14:09:59.408Z,50.78
2018-08-31T14:14:57.155Z,51.66
2018-08-31T14:19:55.752Z,51.28
2018-08-31T14:24:53.266Z,53.47
2018-08-31T14:29:51.629Z,53.79
2018-08-31T14:34:49.996Z,53.12
2018-08-31T14:39:47.696Z,53.71
2018-08-31T14:44:45.122Z,54.66
2018-08-31T14:49:44.485Z,53.32
2018-08-31T14:54:41.991Z,53.84
2018-08-31T14:59:39.410Z,55.22
2018-08-31T15:04:36.833Z,54.23
2018-08-31T15:09:34.227Z,54.33
2018-08-31T15:14:31.656Z,55.37
2018-08-31T15:19:33.513Z,53.72
2018-08-31T15:24:31.013Z,55.75
2018-08-31T15:29:28.438Z,52.48
2018-08-31T15:34:25.847Z,50.41
2018-08-31T15:39:23.348Z,51.94
2018-08-31T15:44:20.850Z,49.46
2018-08-31T15:49:25.362Z,49.51
2018-08-31T15:54:22.904Z,50.39
2018-08-31T15:59:20.316Z,48.70
2018-08-31T16:04:17.752Z,49.63
2018-08-31T16:09:15.181Z,48.63
2018-08-31T16:14:12.594Z,49.26
2018-08-31T16:19:10.865Z,49.38
2018-08-31T16:24:08.283Z,50.03
2018-08-31T16:29:12.224Z,48.92
2018-08-31T16:34:09.775Z,49.08
2018-08-31T16:39:08.152Z,48.23
2018-08-31T16:44:06.165Z,47.34
2018-08-31T16:49:10.083Z,48.70
2018-08-31T16:54:07.507Z,50.12
2018-08-31T16:59:05.252Z,49.82
2018-08-31T17:04:02.720Z,51.20
2018-08-31T17:09:00.144Z,52.45
2018-08-31T17:13:57.574Z,52.88
2018-08-31T17:18:55.439Z,51.97
2018-08-31T17:23:52.901Z,51.84
2018-08-31T17:28:55.972Z,51.63
2018-08-31T17:33:59.051Z,51.14
2018-08-31T17:38:56.458Z,53.19
2018-08-31T17:43:53.887Z,53.60
2018-08-31T17:48:52.399Z,54.27
2018-08-31T17:53:49.822Z,54.94
2018-08-31T17:58:50.536Z,54.33
2018-08-31T18:03:55.201Z,55.03
2018-08-31T18:08:59.830Z,55.55
2018-08-31T18:13:59.894Z,54.80
2018-08-31T18:19:02.759Z,55.40
2018-08-31T18:24:03.061Z,56.65
2018-08-31T18:29:01.715Z,58.00
2018-08-31T18:34:00.109Z,58.69
2018-08-31T18:38:58.187Z,58.55
2018-08-31T18:43:55.599Z,58.68
2018-08-31T18:48:53.011Z,59.97
2018-08-31T18:53:50.447Z,61.87
2018-08-31T18:58:48.668Z,61.49
2018-08-31T19:03:47.006Z,61.84
2018-08-31T19:08:45.133Z,61.90
2018-08-31T19:13:43.332Z,62.96
2018-08-31T19:18:40.822Z,63.69
2018-08-31T19:23:38.947Z,63.63
2018-08-31T19:28:37.580Z,63.21
2018-08-31T19:33:35.706Z,64.55
2018-08-31T19:38:33.640Z,66.76
2018-08-31T19:43:31.969Z,67.30
2018-08-31T19:48:30.423Z,69.27
2018-08-31T19:53:28.629Z,69.75
2018-08-31T19:58:27.373Z,69.47
2018-08-31T20:03:25.527Z,68.70
2018-08-31T20:08:23.495Z,69.17
2018-08-31T20:13:21.651Z,71.14
2018-08-31T20:18:19.821Z,71.70
2018-08-31T20:23:18.403Z,69.20
2018-08-31T20:28:16.559Z,69.45
2018-08-31T20:33:14.381Z,70.71
2018-08-31T20:38:11.822Z,70.27
2018-08-31T20:43:09.484Z,69.68
2018-08-31T20:48:08.031Z,70.82
2018-08-31T20:53:05.583Z,69.73
2018-08-31T20:58:03.192Z,69.10
2018-08-31T21:03:00.583Z,68.44
2018-08-31T21:07:57.999Z,69.90
2018-08-31T21:12:56.019Z,68.66
2018-08-31T21:17:53.830Z,68.46
2018-08-31T21:22:51.711Z,69.08
2018-08-31T21:27:49.606Z,68.90
2018-08-31T21:32:47.022Z,67.99
2018-08-31T21:37:44.435Z,68.83
2018-08-31T21:42:42.314Z,68.22
2018-08-31T21:47:39.751Z,69.32
2018-08-31T21:52:37.260Z,68.45
2018-08-31T21:57:34.689Z,69.17
2018-08-31T22:02:32.095Z,69.19
2018-08-31T22:07:29.512Z,68.18
2018-08-31T22:12:26.930Z,69.63
2018-08-31T22:17:24.792Z,68.33
2018-08-31T22:22:22.186Z,68.70
2018-08-31T22:27:19.583Z,69.77
2018-08-31T22:32:16.968Z,68.57
2018-08-31T22:37:14.479Z,68.83
2018-08-31T22:42:11.871Z,69.57
2018-08-31T22:47:09.263Z,70.13
2018-08-31T22:52:06.780Z,69.79
2018-08-31T22:57:04.149Z,69.54
2018-08-31T23:02:01.551Z,70.22
2018-08-31T23:06:58.978Z,69.36
2018-08-31T23:11:56.391Z,68.85
2018-08-31T23:16:53.813Z,69.29
2018-08-31T23:21:51.210Z,68.81
2018-08-31T23:26:48.622Z,68.92
2018-08-31T23:31:46.015Z,68.76
2018-08-31T23:36:43.448Z,69.16
2018-08-31T23:41:40.846Z,69.66
2018-08-31T23:46:38.254Z,69.27
2018-08-31T23:51:35.664Z,70.64
2018-08-31T23:56:33.059Z,69.57
